Current Weather

Michigan City Municipal Airpo

Michigan City Municipal Airpo, Indiana (KMGC)

Report from: Monday, May 23, 2022 4:55 AM EDT
Current time: Monday, May 23, 2022 5:19 AM EDT

Nearby weather
Weather history
Weather forecast

Temperature3.0°C (37.4°F)
Dew point3.0°C (37.4°F)
Winds Calm
Visibility10 mi. (16.1 km)
Clouds Sky clear
Altimeter30.36 in.Hg (1028 mB)
Relative humidity100 %
Density altitude-1,849 ft. (-564 m)
Remarks Fully automated report
Automated weather observing station with precipitation discriminator
Flight conditions Visual Meteorological Conditions
Raw dataKMGC 230855Z AUTO 00000KT 10SM CLR 03/03 A3036 RMK AO2
An error has occurred. This application may no longer respond until reloaded. Reload 🗙